Time;durP1;ratioP1;P1;durP2;ratioP2;P2;SDS_P1;SDS_P2;PMS_P1;PMS_P2;Temp;Humidity;BMP_temperature;BMP_pressure;BME280_temperature;BME280_humidity;BME280_pressure;Samples;Min_cycle;Max_cycle;Signal;HPM_P1;HPM_P2
2022/01/18 00:01:47;;;;;;;77.15;40.08;;;;;;;;;;5055294;28;20045;-65
2022/01/18 00:04:13;;;;;;;71.22;38.05;;;;;;;;;;5051634;28;20096;-64
2022/01/18 00:06:41;;;;;;;79.55;41.15;;;;;;;;;;5055396;28;20574;-65
2022/01/18 00:09:08;;;;;;;72.43;40.05;;;;;;;;;;5060099;28;20078;-66
2022/01/18 00:11:42;;;;;;;73.40;39.95;;;;;;;;;;5054973;28;20036;-66
2022/01/18 00:14:21;;;;;;;74.90;40.42;;;;;;;;;;5039132;28;20054;-65
2022/01/18 00:17:03;;;;;;;82.07;40.83;;;;;;;;;;5039135;28;20049;-67
2022/01/18 00:19:29;;;;;;;75.90;38.78;;;;;;;;;;5054433;28;20048;-68
2022/01/18 00:24:26;;;;;;;66.30;36.30;;;;;;;;;;5053035;28;20506;-66
2022/01/18 00:26:52;;;;;;;62.00;34.13;;;;;;;;;;5053938;28;20060;-65
2022/01/18 00:29:22;;;;;;;61.10;32.30;;;;;;;;;;5046805;28;20036;-65
2022/01/18 00:32:00;;;;;;;59.60;32.67;;;;;;;;;;5045024;28;20116;-67
2022/01/18 00:34:35;;;;;;;62.00;34.97;;;;;;;;;;5034170;28;20412;-65
2022/01/18 00:39:36;;;;;;;56.67;30.75;;;;;;;;;;5029347;28;20046;-68
2022/01/18 00:42:03;;;;;;;54.33;28.20;;;;;;;;;;5013726;28;20030;-66
2022/01/18 00:44:29;;;;;;;59.92;31.50;;;;;;;;;;5013315;28;20049;-68
2022/01/18 00:46:55;;;;;;;70.75;35.53;;;;;;;;;;5013296;28;20025;-65
2022/01/18 00:49:21;;;;;;;60.75;32.90;;;;;;;;;;5012930;28;20034;-64
2022/01/18 00:51:53;;;;;;;60.10;30.58;;;;;;;;;;5032903;28;20168;-65
2022/01/18 00:54:26;;;;;;;63.00;32.47;;;;;;;;;;5033528;28;20080;-66
2022/01/18 00:56:54;;;;;;;53.38;29.30;;;;;;;;;;5032654;28;20041;-69
2022/01/18 00:59:21;;;;;;;55.15;30.25;;;;;;;;;;5037569;28;20044;-66
2022/01/18 01:01:47;;;;;;;55.67;30.67;;;;;;;;;;5032253;28;20132;-66
2022/01/18 01:04:13;;;;;;;55.72;29.25;;;;;;;;;;5032861;28;20032;-65
2022/01/18 01:06:39;;;;;;;49.42;27.98;;;;;;;;;;5033128;28;20033;-66
2022/01/18 01:09:06;;;;;;;53.63;29.17;;;;;;;;;;5032616;28;20025;-64
2022/01/18 01:11:37;;;;;;;50.55;29.73;;;;;;;;;;5032478;28;20037;-65
2022/01/18 01:14:05;;;;;;;49.10;27.38;;;;;;;;;;5032799;28;20037;-63
2022/01/18 01:33:46;;;;;;;54.10;29.65;;;;;;;;;;5033365;28;20533;-70
2022/01/18 01:41:47;;;;;;;58.67;32.33;;;;;;;;;;5033871;28;20037;-66
2022/01/18 01:43:31;;;;;;;52.45;28.88;;;;;;;;;;5034058;28;20041;-65
2022/01/18 01:45:59;;;;;;;59.65;31.08;;;;;;;;;;5033851;28;20491;-66
2022/01/18 01:48:26;;;;;;;63.40;30.17;;;;;;;;;;5031967;28;20690;-64
2022/01/18 01:51:01;;;;;;;52.70;29.95;;;;;;;;;;5033261;28;20034;-66
2022/01/18 01:53:28;;;;;;;50.50;27.88;;;;;;;;;;5033059;28;20033;-65
2022/01/18 01:55:54;;;;;;;54.58;27.30;;;;;;;;;;5033798;28;20029;-66
2022/01/18 01:58:22;;;;;;;48.45;26.90;;;;;;;;;;5032818;28;20104;-69
2022/01/18 02:00:51;;;;;;;48.65;27.42;;;;;;;;;;5030568;28;20388;-70
2022/01/18 02:03:17;;;;;;;49.70;28.55;;;;;;;;;;5032931;28;20030;-64
2022/01/18 02:05:43;;;;;;;54.83;28.20;;;;;;;;;;5031247;28;20041;-66
2022/01/18 02:08:09;;;;;;;42.15;24.70;;;;;;;;;;5037123;28;20392;-64
2022/01/18 02:10:36;;;;;;;46.05;24.63;;;;;;;;;;5031709;28;20492;-67
2022/01/18 02:13:03;;;;;;;49.25;27.45;;;;;;;;;;5031254;28;20605;-66
2022/01/18 02:15:29;;;;;;;47.88;27.35;;;;;;;;;;5031546;28;20388;-64
2022/01/18 02:23:28;;;;;;;51.13;28.05;;;;;;;;;;5031048;28;20048;-67
2022/01/18 02:25:54;;;;;;;46.03;26.75;;;;;;;;;;5031243;28;20024;-65
2022/01/18 02:28:22;;;;;;;52.83;27.17;;;;;;;;;;5031461;28;20045;-67
2022/01/18 02:30:49;;;;;;;47.50;25.58;;;;;;;;;;5032799;28;20072;-66
2022/01/18 02:33:16;;;;;;;42.63;25.52;;;;;;;;;;5030461;28;20045;-64
2022/01/18 02:35:43;;;;;;;43.22;24.67;;;;;;;;;;5030995;28;20121;-65
2022/01/18 02:38:09;;;;;;;43.25;25.25;;;;;;;;;;5038186;28;20468;-68
2022/01/18 02:40:35;;;;;;;47.28;27.23;;;;;;;;;;5051620;28;20100;-65
2022/01/18 02:45:51;;;;;;;52.25;26.92;;;;;;;;;;5052000;28;20040;-66
2022/01/18 02:48:17;;;;;;;47.08;26.23;;;;;;;;;;5051385;28;20032;-68
2022/01/18 02:50:44;;;;;;;49.25;26.23;;;;;;;;;;5051174;28;20059;-65
2022/01/18 02:53:10;;;;;;;41.40;23.80;;;;;;;;;;5051393;28;20111;-66
2022/01/18 02:55:36;;;;;;;47.47;28.05;;;;;;;;;;5051154;28;20113;-64
2022/01/18 02:58:07;;;;;;;45.90;25.92;;;;;;;;;;5050796;28;20060;-66
2022/01/18 03:03:30;;;;;;;49.78;26.83;;;;;;;;;;5066327;28;20500;-65
2022/01/18 03:05:57;;;;;;;45.35;24.95;;;;;;;;;;5050855;28;20025;-65
2022/01/18 03:08:24;;;;;;;41.95;24.02;;;;;;;;;;5051255;28;20036;-65
2022/01/18 03:10:50;;;;;;;48.28;25.88;;;;;;;;;;5050349;28;20131;-63
2022/01/18 03:13:18;;;;;;;46.13;25.08;;;;;;;;;;5048897;28;20140;-66
2022/01/18 03:15:44;;;;;;;43.80;27.00;;;;;;;;;;5051570;28;20021;-66
2022/01/18 03:18:10;;;;;;;43.45;27.23;;;;;;;;;;5051075;28;20025;-64
2022/01/18 03:20:37;;;;;;;49.20;24.92;;;;;;;;;;5050861;28;20590;-63
2022/01/18 03:23:10;;;;;;;49.05;26.90;;;;;;;;;;5049685;28;20130;-66
2022/01/18 03:28:05;;;;;;;44.83;25.20;;;;;;;;;;5050966;28;20021;-65
2022/01/18 03:30:39;;;;;;;45.90;26.30;;;;;;;;;;5051064;28;20115;-65
2022/01/18 03:33:08;;;;;;;47.13;25.50;;;;;;;;;;5050490;28;20053;-66
2022/01/18 03:35:35;;;;;;;49.33;26.85;;;;;;;;;;5049929;28;20384;-65
2022/01/18 03:38:00;;;;;;;50.72;26.05;;;;;;;;;;5050734;28;20044;-64
2022/01/18 03:40:27;;;;;;;45.10;24.90;;;;;;;;;;5051050;28;20025;-64
2022/01/18 03:42:54;;;;;;;44.08;23.98;;;;;;;;;;5051339;28;20041;-66
2022/01/18 03:45:24;;;;;;;43.30;25.80;;;;;;;;;;5051456;28;20025;-65
2022/01/18 03:47:51;;;;;;;38.75;24.08;;;;;;;;;;5051264;28;20044;-66
2022/01/18 03:50:17;;;;;;;50.70;25.70;;;;;;;;;;5050883;28;20483;-65
2022/01/18 03:52:45;;;;;;;44.25;24.48;;;;;;;;;;5053781;28;20056;-65
2022/01/18 03:55:13;;;;;;;62.00;25.92;;;;;;;;;;5050564;28;20036;-66
2022/01/18 03:57:39;;;;;;;41.85;23.33;;;;;;;;;;5043114;28;20523;-67
2022/01/18 04:00:08;;;;;;;45.58;24.05;;;;;;;;;;5033642;28;20353;-65
2022/01/18 04:02:38;;;;;;;41.20;24.67;;;;;;;;;;5035530;28;20511;-64
2022/01/18 04:05:04;;;;;;;41.65;23.85;;;;;;;;;;5031532;28;20275;-64
2022/01/18 04:07:30;;;;;;;44.95;25.52;;;;;;;;;;5032070;28;20064;-66
2022/01/18 04:09:55;;;;;;;39.38;25.45;;;;;;;;;;5030635;28;20496;-67
2022/01/18 04:12:21;;;;;;;48.42;27.45;;;;;;;;;;5031120;28;20037;-65
2022/01/18 04:14:47;;;;;;;43.92;25.05;;;;;;;;;;5030343;28;20025;-66
2022/01/18 04:17:32;;;;;;;55.67;27.50;;;;;;;;;;5039041;28;20040;-65
2022/01/18 04:28:36;;;;;;;56.30;28.75;;;;;;;;;;5046910;28;20036;-66
2022/01/18 04:31:02;;;;;;;47.88;26.50;;;;;;;;;;5055082;28;20029;-65
2022/01/18 04:33:28;;;;;;;45.13;25.60;;;;;;;;;;5054787;28;20103;-66
2022/01/18 04:35:53;;;;;;;48.97;29.80;;;;;;;;;;5054161;28;20040;-65
2022/01/18 04:38:19;;;;;;;48.80;26.90;;;;;;;;;;5035908;28;20029;-65
2022/01/18 04:40:46;;;;;;;53.72;27.15;;;;;;;;;;5055033;28;20117;-65
2022/01/18 04:48:34;;;;;;;58.70;27.73;;;;;;;;;;5044160;28;20108;-70
2022/01/18 04:51:10;;;;;;;51.83;26.10;;;;;;;;;;5050132;28;20055;-70
2022/01/18 04:53:47;;;;;;;42.00;23.70;;;;;;;;;;5046531;28;20412;-71
2022/01/18 04:56:16;;;;;;;45.63;24.65;;;;;;;;;;5036824;28;20061;-69
2022/01/18 04:58:43;;;;;;;41.10;24.35;;;;;;;;;;5034385;28;20200;-70
2022/01/18 05:01:10;;;;;;;44.83;24.38;;;;;;;;;;5043696;28;20115;-70
2022/01/18 05:03:36;;;;;;;54.60;26.67;;;;;;;;;;5053065;28;20033;-70
2022/01/18 05:06:08;;;;;;;61.15;26.75;;;;;;;;;;5053979;28;20032;-71
2022/01/18 05:08:36;;;;;;;44.17;24.63;;;;;;;;;;5053403;28;20029;-70
2022/01/18 05:11:03;;;;;;;55.10;26.02;;;;;;;;;;5049906;28;20084;-71
2022/01/18 05:19:05;;;;;;;49.38;25.67;;;;;;;;;;5033720;28;20052;-71
2022/01/18 05:24:02;;;;;;;50.65;26.90;;;;;;;;;;5032911;28;20041;-72
2022/01/18 05:26:29;;;;;;;51.63;28.13;;;;;;;;;;5033500;28;20079;-72
2022/01/18 05:28:57;;;;;;;45.17;26.00;;;;;;;;;;5033204;28;20036;-74
2022/01/18 05:31:24;;;;;;;47.67;25.88;;;;;;;;;;5033168;28;20025;-75
2022/01/18 05:33:50;;;;;;;55.50;28.83;;;;;;;;;;5032179;28;20088;-71
2022/01/18 05:36:15;;;;;;;54.42;27.38;;;;;;;;;;5032739;28;20037;-72
2022/01/18 05:38:42;;;;;;;51.80;26.60;;;;;;;;;;5033027;28;20087;-71
2022/01/18 05:41:10;;;;;;;48.65;26.05;;;;;;;;;;5033178;28;20025;-73
2022/01/18 05:43:37;;;;;;;41.38;22.40;;;;;;;;;;5033134;28;20151;-72
2022/01/18 05:46:02;;;;;;;37.20;20.23;;;;;;;;;;5032695;28;20030;-71
2022/01/18 05:48:28;;;;;;;39.35;21.38;;;;;;;;;;5033119;28;20037;-71
2022/01/18 05:50:59;;;;;;;35.28;20.88;;;;;;;;;;5031051;28;20079;-71
2022/01/18 05:53:30;;;;;;;33.72;20.02;;;;;;;;;;5031858;28;20048;-71
2022/01/18 05:55:58;;;;;;;35.42;19.13;;;;;;;;;;5032820;28;20056;-74
2022/01/18 05:58:23;;;;;;;32.58;19.90;;;;;;;;;;5041697;28;20088;-71
2022/01/18 06:00:52;;;;;;;33.90;21.45;;;;;;;;;;5051963;28;20060;-72
2022/01/18 06:03:35;;;;;;;33.33;20.35;;;;;;;;;;5051077;28;20120;-75
2022/01/18 06:08:45;;;;;;;41.42;21.25;;;;;;;;;;5051914;28;20032;-71
2022/01/18 06:11:11;;;;;;;38.00;20.83;;;;;;;;;;5052616;28;20021;-71
2022/01/18 06:13:37;;;;;;;32.53;19.65;;;;;;;;;;5051573;28;20496;-73
2022/01/18 06:16:03;;;;;;;36.60;21.38;;;;;;;;;;5052142;28;20029;-72
2022/01/18 06:18:29;;;;;;;33.08;19.52;;;;;;;;;;5052135;28;20029;-76
2022/01/18 06:20:55;;;;;;;34.85;20.45;;;;;;;;;;5052443;28;20029;-73
2022/01/18 06:23:22;;;;;;;38.92;20.08;;;;;;;;;;5052357;28;20427;-72
2022/01/18 06:25:48;;;;;;;33.63;19.60;;;;;;;;;;5051281;28;20025;-73
2022/01/18 06:28:14;;;;;;;35.42;19.77;;;;;;;;;;5051467;28;20082;-75
2022/01/18 06:30:39;;;;;;;29.88;18.75;;;;;;;;;;5051693;28;20071;-71
2022/01/18 06:33:05;;;;;;;31.50;17.02;;;;;;;;;;5051165;28;20045;-72
2022/01/18 06:35:31;;;;;;;34.15;19.20;;;;;;;;;;5050648;28;20087;-74
2022/01/18 06:37:59;;;;;;;42.15;19.77;;;;;;;;;;5052083;28;20061;-74
2022/01/18 06:40:25;;;;;;;31.15;18.67;;;;;;;;;;5049859;28;20037;-72
2022/01/18 06:42:52;;;;;;;29.50;17.75;;;;;;;;;;5052251;28;20055;-74
2022/01/18 06:45:18;;;;;;;26.35;16.30;;;;;;;;;;5052087;28;20391;-71
2022/01/18 06:47:44;;;;;;;37.47;16.40;;;;;;;;;;5051728;28;20499;-72
2022/01/18 06:50:13;;;;;;;33.35;15.52;;;;;;;;;;5051522;28;20081;-75
2022/01/18 06:52:39;;;;;;;34.38;16.85;;;;;;;;;;5050907;28;20063;-76
2022/01/18 06:55:07;;;;;;;26.80;17.48;;;;;;;;;;5051767;28;20066;-73
2022/01/18 06:57:33;;;;;;;35.97;19.38;;;;;;;;;;5052627;28;20169;-72
2022/01/18 06:59:59;;;;;;;27.88;17.80;;;;;;;;;;5051135;28;20517;-72
2022/01/18 07:02:24;;;;;;;38.00;20.35;;;;;;;;;;5050886;28;20033;-73
2022/01/18 07:04:50;;;;;;;29.00;17.27;;;;;;;;;;5051411;28;20174;-73
2022/01/18 07:07:17;;;;;;;38.40;21.92;;;;;;;;;;5051157;28;20041;-74
2022/01/18 07:09:44;;;;;;;28.88;18.77;;;;;;;;;;5050983;28;20029;-72
2022/01/18 07:12:12;;;;;;;28.90;15.80;;;;;;;;;;5051346;28;20033;-72
2022/01/18 07:14:39;;;;;;;22.38;14.80;;;;;;;;;;5050938;28;20029;-74
2022/01/18 07:17:05;;;;;;;30.67;19.48;;;;;;;;;;5049899;28;20033;-73
2022/01/18 07:19:32;;;;;;;22.27;14.13;;;;;;;;;;5050938;28;20056;-73
2022/01/18 07:22:02;;;;;;;22.25;15.30;;;;;;;;;;5051045;28;20111;-72
2022/01/18 07:24:40;;;;;;;22.83;12.68;;;;;;;;;;5050338;28;20033;-76
2022/01/18 07:27:07;;;;;;;20.73;12.50;;;;;;;;;;5050869;28;20439;-76
2022/01/18 07:29:34;;;;;;;17.00;11.13;;;;;;;;;;5050700;28;20039;-75
2022/01/18 07:31:59;;;;;;;14.32;9.25;;;;;;;;;;5050562;28;20390;-75
2022/01/18 07:34:26;;;;;;;26.80;12.10;;;;;;;;;;5051353;28;20047;-73
2022/01/18 07:36:52;;;;;;;23.45;10.75;;;;;;;;;;5051364;28;20040;-75
2022/01/18 07:39:18;;;;;;;17.80;9.88;;;;;;;;;;5049502;28;20456;-73
2022/01/18 07:41:44;;;;;;;30.88;12.75;;;;;;;;;;5050582;28;20044;-72
2022/01/18 07:44:10;;;;;;;20.65;9.93;;;;;;;;;;5051278;28;20112;-75
2022/01/18 07:46:35;;;;;;;19.02;9.85;;;;;;;;;;5051316;28;20032;-73
2022/01/18 07:49:01;;;;;;;22.85;8.48;;;;;;;;;;5050717;28;20021;-73
2022/01/18 07:51:27;;;;;;;18.25;9.45;;;;;;;;;;5049039;28;20540;-72
2022/01/18 07:53:53;;;;;;;25.02;11.02;;;;;;;;;;5049564;28;20037;-70
2022/01/18 07:56:18;;;;;;;19.27;10.15;;;;;;;;;;5050318;28;20405;-75
2022/01/18 07:58:45;;;;;;;16.17;8.43;;;;;;;;;;5052991;28;20036;-73
2022/01/18 08:01:11;;;;;;;26.23;15.07;;;;;;;;;;5054360;28;20434;-74
2022/01/18 08:03:36;;;;;;;39.17;20.63;;;;;;;;;;5052994;28;20120;-76
2022/01/18 08:06:02;;;;;;;33.58;19.73;;;;;;;;;;5053547;28;20404;-75
2022/01/18 08:08:28;;;;;;;26.15;15.48;;;;;;;;;;5054196;28;20032;-73
2022/01/18 08:10:55;;;;;;;47.65;18.48;;;;;;;;;;5054520;28;20111;-74
2022/01/18 08:13:26;;;;;;;33.08;17.92;;;;;;;;;;5054468;28;20043;-72
2022/01/18 08:16:09;;;;;;;23.58;14.98;;;;;;;;;;5054408;28;20036;-74
2022/01/18 08:18:34;;;;;;;21.70;12.70;;;;;;;;;;5054134;28;20540;-71
2022/01/18 08:21:00;;;;;;;19.92;12.20;;;;;;;;;;5054026;28;20025;-72
2022/01/18 08:23:26;;;;;;;20.85;11.77;;;;;;;;;;5053587;28;20029;-72
2022/01/18 08:25:52;;;;;;;15.13;8.32;;;;;;;;;;5052298;28;20108;-73
2022/01/18 08:28:18;;;;;;;14.50;7.53;;;;;;;;;;5053354;28;20025;-73
2022/01/18 08:30:43;;;;;;;13.10;7.15;;;;;;;;;;5054300;28;20108;-71
2022/01/18 08:33:09;;;;;;;12.73;7.35;;;;;;;;;;5054146;28;20123;-73
2022/01/18 08:35:37;;;;;;;12.10;5.95;;;;;;;;;;5053605;28;20033;-73
2022/01/18 08:38:03;;;;;;;7.35;5.20;;;;;;;;;;5053825;28;20033;-72
2022/01/18 08:40:29;;;;;;;14.63;5.85;;;;;;;;;;5054095;28;20107;-72
2022/01/18 08:42:55;;;;;;;5.07;3.17;;;;;;;;;;5054047;28;20446;-72
2022/01/18 08:45:21;;;;;;;4.13;2.25;;;;;;;;;;5053131;28;20108;-74
2022/01/18 08:47:48;;;;;;;2.72;1.33;;;;;;;;;;5036326;28;20037;-73
2022/01/18 08:50:14;;;;;;;5.70;1.83;;;;;;;;;;5054667;28;20340;-71
2022/01/18 08:52:40;;;;;;;7.05;2.55;;;;;;;;;;5054077;28;20036;-72
2022/01/18 08:55:06;;;;;;;5.22;2.55;;;;;;;;;;5052992;28;20029;-72
2022/01/18 08:57:32;;;;;;;4.57;2.58;;;;;;;;;;5054290;28;20098;-72
2022/01/18 08:59:58;;;;;;;3.40;1.73;;;;;;;;;;5054249;28;20120;-71
2022/01/18 09:02:23;;;;;;;3.88;1.80;;;;;;;;;;5053492;28;20045;-72
2022/01/18 09:04:50;;;;;;;5.38;2.55;;;;;;;;;;5053623;28;20029;-72
2022/01/18 09:07:18;;;;;;;4.93;2.60;;;;;;;;;;5055035;28;20491;-74
2022/01/18 09:09:45;;;;;;;9.70;2.05;;;;;;;;;;5053149;28;20444;-71
2022/01/18 09:12:15;;;;;;;8.35;2.20;;;;;;;;;;5052614;28;20092;-73
2022/01/18 09:14:41;;;;;;;4.20;2.13;;;;;;;;;;5046938;28;20476;-72
2022/01/18 09:17:07;;;;;;;7.00;1.70;;;;;;;;;;5040913;28;20037;-73
2022/01/18 09:19:33;;;;;;;5.13;2.33;;;;;;;;;;5049768;28;20029;-72
2022/01/18 09:22:00;;;;;;;5.70;1.85;;;;;;;;;;5034363;28;20041;-72
2022/01/18 09:24:26;;;;;;;4.78;2.72;;;;;;;;;;5051289;28;20045;-75
2022/01/18 09:26:53;;;;;;;3.45;1.48;;;;;;;;;;5052662;28;20044;-77
2022/01/18 09:29:19;;;;;;;3.28;1.60;;;;;;;;;;5053666;28;20095;-74
2022/01/18 09:31:45;;;;;;;2.70;1.45;;;;;;;;;;5052836;28;20396;-74
2022/01/18 09:34:11;;;;;;;4.97;2.10;;;;;;;;;;5046773;28;20124;-73
2022/01/18 09:36:37;;;;;;;6.38;2.03;;;;;;;;;;5033678;28;20370;-74
2022/01/18 09:39:04;;;;;;;4.05;2.00;;;;;;;;;;5032715;28;20106;-73
2022/01/18 09:41:34;;;;;;;4.20;2.17;;;;;;;;;;5032896;28;20029;-76
2022/01/18 09:44:00;;;;;;;8.30;1.83;;;;;;;;;;5033482;28;20396;-73
2022/01/18 09:46:26;;;;;;;11.15;1.80;;;;;;;;;;5032294;28;20033;-74
2022/01/18 09:48:56;;;;;;;4.75;2.22;;;;;;;;;;5033375;28;20026;-77
2022/01/18 09:51:23;;;;;;;4.35;1.50;;;;;;;;;;5032107;28;20033;-75
2022/01/18 09:53:50;;;;;;;5.00;2.25;;;;;;;;;;5033245;28;20037;-77
2022/01/18 09:56:16;;;;;;;6.40;2.13;;;;;;;;;;5033067;28;20026;-73
2022/01/18 09:58:43;;;;;;;2.55;1.48;;;;;;;;;;5033520;28;20384;-73
2022/01/18 10:01:09;;;;;;;2.90;1.48;;;;;;;;;;5033438;28;20040;-72
2022/01/18 10:03:37;;;;;;;5.22;1.50;;;;;;;;;;5033081;28;20021;-72
2022/01/18 10:06:05;;;;;;;3.35;1.50;;;;;;;;;;5032370;28;20477;-71
2022/01/18 10:08:30;;;;;;;2.90;1.85;;;;;;;;;;5032908;28;20389;-77
2022/01/18 10:10:59;;;;;;;4.18;2.35;;;;;;;;;;5015086;28;20045;-72
2022/01/18 10:13:31;;;;;;;2.92;1.58;;;;;;;;;;5032704;28;20037;-70
2022/01/18 10:16:03;;;;;;;3.70;1.50;;;;;;;;;;5032350;28;20099;-71
2022/01/18 10:18:37;;;;;;;2.17;1.37;;;;;;;;;;5031527;28;20048;-71
2022/01/18 10:21:08;;;;;;;4.00;1.75;;;;;;;;;;5030617;28;20037;-71
2022/01/18 10:23:35;;;;;;;3.92;1.45;;;;;;;;;;5031859;28;20025;-71
2022/01/18 10:26:22;;;;;;;3.38;1.75;;;;;;;;;;5031812;28;20041;-71
2022/01/18 10:28:58;;;;;;;3.22;1.90;;;;;;;;;;5031150;28;20116;-72
2022/01/18 10:31:34;;;;;;;4.50;2.40;;;;;;;;;;5032077;28;20041;-70
2022/01/18 10:37:09;;;;;;;3.53;2.25;;;;;;;;;;5030554;28;20129;-73
2022/01/18 10:39:41;;;;;;;4.43;1.85;;;;;;;;;;5031743;28;20018;-73
2022/01/18 10:42:24;;;;;;;3.58;1.85;;;;;;;;;;5030757;28;20291;-73
2022/01/18 10:45:12;;;;;;;;;;;;;;;;;;5031651;28;20040;-70
2022/01/18 10:47:48;;;;;;;4.32;2.50;;;;;;;;;;5032128;28;19913;-71
2022/01/18 10:50:16;;;;;;;2.95;1.70;;;;;;;;;;5031716;28;20039;-71
2022/01/18 10:52:42;;;;;;;2.78;1.30;;;;;;;;;;5031618;28;20029;-71
2022/01/18 10:55:24;;;;;;;5.15;1.50;;;;;;;;;;5030724;28;20362;-75
2022/01/18 10:57:50;;;;;;;2.80;1.50;;;;;;;;;;5031368;28;20033;-70
2022/01/18 11:00:21;;;;;;;4.93;2.03;;;;;;;;;;5032164;28;20022;-75
2022/01/18 11:02:52;;;;;;;8.60;3.40;;;;;;;;;;5031454;28;20037;-69
2022/01/18 11:05:27;;;;;;;6.68;2.42;;;;;;;;;;5032553;28;20041;-72
2022/01/18 11:07:56;;;;;;;3.95;2.22;;;;;;;;;;5031669;28;20076;-71
2022/01/18 11:10:26;;;;;;;3.88;1.90;;;;;;;;;;5031735;28;20033;-73
2022/01/18 11:13:44;;;;;;;2.97;1.60;;;;;;;;;;5031371;28;20021;-72
2022/01/18 11:15:51;;;;;;;4.05;1.95;;;;;;;;;;5028661;28;20441;-72
2022/01/18 11:18:28;;;;;;;3.85;1.83;;;;;;;;;;5031138;28;20358;-69
2022/01/18 11:20:57;;;;;;;4.47;1.70;;;;;;;;;;5031365;28;20038;-72
2022/01/18 11:23:24;;;;;;;6.13;1.58;;;;;;;;;;5030475;28;20045;-71
2022/01/18 11:25:53;;;;;;;2.78;1.40;;;;;;;;;;5030840;28;20045;-70
2022/01/18 11:28:20;;;;;;;6.60;1.90;;;;;;;;;;5048872;28;20060;-74
2022/01/18 11:30:49;;;;;;;2.88;1.90;;;;;;;;;;5039333;28;20026;-72
2022/01/18 11:33:18;;;;;;;3.60;1.92;;;;;;;;;;5045339;28;20033;-76
2022/01/18 11:36:04;;;;;;;4.35;2.30;;;;;;;;;;5041535;28;20484;-77
2022/01/18 11:38:53;;;;;;;7.40;3.30;;;;;;;;;;5035766;28;20120;-75
2022/01/18 11:41:27;;;;;;;3.10;1.50;;;;;;;;;;5037753;28;20388;-75
2022/01/18 11:43:55;;;;;;;3.70;1.27;;;;;;;;;;5039510;28;20039;-71
2022/01/18 11:46:27;;;;;;;5.45;2.75;;;;;;;;;;5043583;28;20038;-73
2022/01/18 11:49:04;;;;;;;1.65;1.10;;;;;;;;;;5040062;28;20112;-72
2022/01/18 11:51:53;;;;;;;5.38;2.05;;;;;;;;;;5033485;28;20048;-71
2022/01/18 11:54:32;;;;;;;3.65;1.38;;;;;;;;;;5036535;28;20116;-74
2022/01/18 11:57:04;;;;;;;2.95;1.50;;;;;;;;;;5035970;28;20041;-71
2022/01/18 11:59:39;;;;;;;4.70;1.50;;;;;;;;;;5038509;28;20033;-72
2022/01/18 12:02:06;;;;;;;11.98;3.58;;;;;;;;;;5035326;28;20369;-70
2022/01/18 12:04:40;;;;;;;6.85;2.42;;;;;;;;;;5034021;28;20026;-76
2022/01/18 12:07:07;;;;;;;3.03;1.70;;;;;;;;;;5031828;28;20476;-72
2022/01/18 12:09:43;;;;;;;6.20;2.90;;;;;;;;;;5032522;28;20026;-72
2022/01/18 12:12:42;;;;;;;3.63;1.30;;;;;;;;;;5034129;28;20060;-75
2022/01/18 12:15:21;;;;;;;4.38;2.85;;;;;;;;;;5035462;28;20420;-72
2022/01/18 12:17:51;;;;;;;2.85;1.60;;;;;;;;;;5038746;28;20099;-82
2022/01/18 12:20:35;;;;;;;4.93;1.90;;;;;;;;;;5034986;28;20061;-81
2022/01/18 12:23:24;;;;;;;7.57;2.88;;;;;;;;;;5034587;28;20061;-70
2022/01/18 12:25:58;;;;;;;5.25;1.88;;;;;;;;;;5034595;28;20120;-74
2022/01/18 12:34:29;;;;;;;3.88;2.03;;;;;;;;;;5034031;28;20057;-70
2022/01/18 12:37:19;;;;;;;11.70;2.05;;;;;;;;;;5034663;28;20037;-73
2022/01/18 12:39:54;;;;;;;3.85;1.70;;;;;;;;;;5033826;28;20064;-76
2022/01/18 12:44:20;;;;;;;5.10;1.50;;;;;;;;;;5034118;28;20041;-70
2022/01/18 12:45:13;;;;;;;3.00;1.70;;;;;;;;;;5033472;28;20116;-71
2022/01/18 12:47:47;;;;;;;3.55;2.10;;;;;;;;;;5034454;28;20041;-71
2022/01/18 12:50:15;;;;;;;7.32;2.00;;;;;;;;;;5046505;28;20033;-71
2022/01/18 12:52:45;;;;;;;6.05;1.60;;;;;;;;;;5053846;28;20068;-72
2022/01/18 12:55:29;;;;;;;3.08;1.58;;;;;;;;;;5053738;28;20107;-70
2022/01/18 12:58:20;;;;;;;4.15;2.28;;;;;;;;;;5052735;28;20033;-71
2022/01/18 13:00:51;;;;;;;2.40;1.30;;;;;;;;;;5053096;28;20044;-71
2022/01/18 13:03:21;;;;;;;14.68;5.95;;;;;;;;;;5034078;28;20033;-70
2022/01/18 13:05:48;;;;;;;8.98;3.15;;;;;;;;;;5034488;28;20022;-71
2022/01/18 13:08:18;;;;;;;8.52;3.25;;;;;;;;;;5033684;28;20032;-71
2022/01/18 13:10:46;;;;;;;6.88;3.20;;;;;;;;;;5032892;28;20468;-71
2022/01/18 13:13:14;;;;;;;5.85;2.97;;;;;;;;;;5032908;28;20156;-70
2022/01/18 13:26:41;;;;;;;6.03;2.80;;;;;;;;;;5033726;28;20120;-77
2022/01/18 13:29:20;;;;;;;5.15;2.03;;;;;;;;;;5040233;28;20029;-80
2022/01/18 13:32:12;;;;;;;5.15;2.00;;;;;;;;;;5033026;28;20095;-71
2022/01/18 13:34:42;;;;;;;4.97;2.63;;;;;;;;;;5033580;28;20142;-75
2022/01/18 13:37:12;;;;;;;4.05;1.52;;;;;;;;;;5033312;28;20061;-71
2022/01/18 13:39:45;;;;;;;4.10;1.98;;;;;;;;;;5035044;28;20117;-70
2022/01/18 13:42:15;;;;;;;9.57;2.22;;;;;;;;;;5033356;28;20040;-73
2022/01/18 13:45:19;;;;;;;2.90;1.48;;;;;;;;;;5033628;28;20067;-75
2022/01/18 13:47:55;;;;;;;3.90;1.73;;;;;;;;;;5032628;28;20029;-71
2022/01/18 13:50:55;;;;;;;6.63;1.67;;;;;;;;;;5040415;28;20052;-74
2022/01/18 13:53:33;;;;;;;5.15;1.83;;;;;;;;;;5052788;28;20032;-71
2022/01/18 13:56:07;;;;;;;4.07;1.35;;;;;;;;;;5051169;28;20037;-70
2022/01/18 13:58:40;;;;;;;7.32;2.60;;;;;;;;;;5052134;28;20120;-70
2022/01/18 14:01:07;;;;;;;6.25;3.00;;;;;;;;;;5050989;28;20048;-70
2022/01/18 14:03:37;;;;;;;15.15;4.25;;;;;;;;;;5052960;28;20028;-71
2022/01/18 14:06:03;;;;;;;5.13;2.70;;;;;;;;;;5052742;28;20037;-72
2022/01/18 14:08:34;;;;;;;6.00;3.20;;;;;;;;;;5052720;28;20017;-71
2022/01/18 14:11:06;;;;;;;6.38;2.65;;;;;;;;;;5051405;28;20437;-73
2022/01/18 14:13:36;;;;;;;3.33;1.40;;;;;;;;;;5067344;28;20040;-73
2022/01/18 14:16:25;;;;;;;3.90;1.90;;;;;;;;;;5053104;28;20037;-71
2022/01/18 14:19:01;;;;;;;2.80;1.40;;;;;;;;;;5052612;28;20029;-72
2022/01/18 14:21:30;;;;;;;3.85;1.50;;;;;;;;;;5052703;28;20059;-71
2022/01/18 14:24:45;;;;;;;3.25;1.52;;;;;;;;;;5051675;28;20031;-73
2022/01/18 14:27:15;;;;;;;4.97;1.17;;;;;;;;;;5047190;28;20108;-72
2022/01/18 14:29:41;;;;;;;5.82;1.50;;;;;;;;;;5052904;28;20027;-71
2022/01/18 14:32:12;;;;;;;3.13;1.40;;;;;;;;;;5052810;28;20111;-75
2022/01/18 14:34:46;;;;;;;5.93;1.85;;;;;;;;;;5052865;28;20056;-72
2022/01/18 14:37:13;;;;;;;3.92;1.80;;;;;;;;;;5052236;28;20029;-72
2022/01/18 14:40:00;;;;;;;6.57;1.95;;;;;;;;;;5052979;28;20390;-75
2022/01/18 14:42:46;;;;;;;3.20;1.58;;;;;;;;;;5052666;28;20418;-82
2022/01/18 14:47:48;;;;;;;3.35;1.80;;;;;;;;;;5049861;28;20385;-74
2022/01/18 14:50:20;;;;;;;5.47;2.10;;;;;;;;;;5050971;28;20112;-73
2022/01/18 14:52:48;;;;;;;6.28;2.60;;;;;;;;;;5051124;28;20380;-75
2022/01/18 14:55:15;;;;;;;9.60;3.60;;;;;;;;;;5051352;28;20096;-72
2022/01/18 14:57:42;;;;;;;6.45;3.35;;;;;;;;;;5051029;28;20082;-78
2022/01/18 15:00:12;;;;;;;8.23;4.10;;;;;;;;;;5049191;28;20017;-73
2022/01/18 15:02:38;;;;;;;8.13;3.50;;;;;;;;;;5050852;28;20040;-75
2022/01/18 15:05:05;;;;;;;8.45;3.85;;;;;;;;;;5051237;28;20021;-72
2022/01/18 15:07:30;;;;;;;9.38;4.00;;;;;;;;;;5051116;28;20464;-74
2022/01/18 15:09:56;;;;;;;4.18;2.22;;;;;;;;;;5050065;28;20103;-74
2022/01/18 15:12:22;;;;;;;4.68;2.80;;;;;;;;;;5050919;28;20357;-75
2022/01/18 15:14:48;;;;;;;6.47;3.30;;;;;;;;;;5049966;28;20075;-73
2022/01/18 15:17:14;;;;;;;6.10;3.50;;;;;;;;;;5050843;28;20049;-74
2022/01/18 15:19:39;;;;;;;7.78;3.13;;;;;;;;;;5049408;28;20040;-71
2022/01/18 15:22:09;;;;;;;6.10;2.97;;;;;;;;;;5030876;28;20037;-71
2022/01/18 15:24:36;;;;;;;7.68;2.97;;;;;;;;;;5045826;28;20407;-71
2022/01/18 15:27:03;;;;;;;11.38;4.60;;;;;;;;;;5025911;28;20034;-75
2022/01/18 15:29:30;;;;;;;9.52;5.22;;;;;;;;;;5030900;28;20018;-73
2022/01/18 15:31:56;;;;;;;16.20;5.05;;;;;;;;;;5030666;28;20422;-71
2022/01/18 15:34:22;;;;;;;10.10;5.30;;;;;;;;;;5030402;28;20045;-72
2022/01/18 15:36:48;;;;;;;11.57;6.13;;;;;;;;;;5026771;28;21642;-74
2022/01/18 15:39:14;;;;;;;15.90;6.32;;;;;;;;;;5029987;28;20116;-76
2022/01/18 15:41:41;;;;;;;8.38;4.70;;;;;;;;;;5031598;28;20030;-72
2022/01/18 15:44:08;;;;;;;12.32;6.35;;;;;;;;;;5031685;28;20025;-77
2022/01/18 15:46:35;;;;;;;19.10;7.40;;;;;;;;;;5030997;28;20069;-78
2022/01/18 15:49:00;;;;;;;13.10;5.57;;;;;;;;;;5031412;28;20487;-73
2022/01/18 15:51:26;;;;;;;12.82;5.28;;;;;;;;;;5031069;28;20029;-78
2022/01/18 15:53:52;;;;;;;13.02;5.55;;;;;;;;;;5030832;28;20101;-75
2022/01/18 15:56:18;;;;;;;11.95;5.22;;;;;;;;;;5030468;28;20026;-78
2022/01/18 15:58:47;;;;;;;15.27;6.55;;;;;;;;;;5031922;28;20022;-78
2022/01/18 16:01:13;;;;;;;18.13;6.82;;;;;;;;;;5024550;28;20045;-70
2022/01/18 16:03:39;;;;;;;20.98;9.90;;;;;;;;;;5030960;28;20111;-74
2022/01/18 16:06:08;;;;;;;22.58;10.85;;;;;;;;;;5030683;28;20576;-71
2022/01/18 16:08:36;;;;;;;26.77;12.00;;;;;;;;;;5030797;28;20026;-72
2022/01/18 16:11:12;;;;;;;24.88;9.02;;;;;;;;;;5030835;28;20208;-73